sensor_id;sensor_type;location;lat;lon;timestamp;P1;durP1;ratioP1;P2;durP2;ratioP2
29416;SDS011;28421;51.030;4.006;2023-04-03T03:20:15;9.10;;;5.18;;
29416;SDS011;28421;51.030;4.006;2023-04-03T03:22:41;9.60;;;6.82;;
29416;SDS011;28421;51.030;4.006;2023-04-03T03:25:06;9.63;;;5.95;;
29416;SDS011;28421;51.030;4.006;2023-04-03T03:27:32;9.00;;;6.68;;
29416;SDS011;28421;51.030;4.006;2023-04-03T03:29:57;11.73;;;5.93;;
29416;SDS011;28421;51.030;4.006;2023-04-03T03:32:23;9.35;;;5.85;;
29416;SDS011;28421;51.030;4.006;2023-04-03T03:34:49;6.57;;;5.07;;
29416;SDS011;28421;51.030;4.006;2023-04-03T03:37:14;8.07;;;6.25;;
29416;SDS011;28421;51.030;4.006;2023-04-03T03:39:40;8.45;;;5.72;;
29416;SDS011;28421;51.030;4.006;2023-04-03T03:42:05;8.70;;;5.32;;
29416;SDS011;28421;51.030;4.006;2023-04-03T03:44:31;6.95;;;5.47;;
29416;SDS011;28421;51.030;4.006;2023-04-03T03:46:57;7.60;;;5.80;;
29416;SDS011;28421;51.030;4.006;2023-04-03T03:49:22;18.00;;;7.95;;
29416;SDS011;28421;51.030;4.006;2023-04-03T03:51:48;8.98;;;6.00;;
29416;SDS011;28421;51.030;4.006;2023-04-03T03:54:15;5.75;;;5.07;;
29416;SDS011;28421;51.030;4.006;2023-04-03T03:56:41;9.93;;;6.15;;
29416;SDS011;28421;51.030;4.006;2023-04-03T03:59:07;9.88;;;5.72;;
29416;SDS011;28421;51.030;4.006;2023-04-03T04:01:33;7.10;;;6.22;;
29416;SDS011;28421;51.030;4.006;2023-04-03T04:03:59;6.50;;;5.03;;
29416;SDS011;28421;51.030;4.006;2023-04-03T04:06:29;6.60;;;5.70;;
29416;SDS011;28421;51.030;4.006;2023-04-03T04:08:58;8.02;;;5.53;;
29416;SDS011;28421;51.030;4.006;2023-04-03T04:11:23;6.90;;;4.82;;
29416;SDS011;28421;51.030;4.006;2023-04-03T04:13:51;8.07;;;6.15;;
29416;SDS011;28421;51.030;4.006;2023-04-03T04:16:19;7.32;;;6.15;;
29416;SDS011;28421;51.030;4.006;2023-04-03T04:18:45;7.78;;;6.05;;
29416;SDS011;28421;51.030;4.006;2023-04-03T04:21:11;7.65;;;5.32;;
29416;SDS011;28421;51.030;4.006;2023-04-03T04:23:37;5.53;;;5.03;;
29416;SDS011;28421;51.030;4.006;2023-04-03T04:26:03;7.38;;;5.80;;
29416;SDS011;28421;51.030;4.006;2023-04-03T04:28:32;8.68;;;5.25;;
29416;SDS011;28421;51.030;4.006;2023-04-03T04:30:59;6.95;;;5.30;;
29416;SDS011;28421;51.030;4.006;2023-04-03T04:33:26;8.27;;;6.18;;
29416;SDS011;28421;51.030;4.006;2023-04-03T04:35:52;5.97;;;5.25;;
29416;SDS011;28421;51.030;4.006;2023-04-03T04:38:19;8.70;;;6.30;;
29416;SDS011;28421;51.030;4.006;2023-04-03T04:40:46;4.82;;;4.35;;
29416;SDS011;28421;51.030;4.006;2023-04-03T04:43:12;8.30;;;6.10;;
29416;SDS011;28421;51.030;4.006;2023-04-03T04:45:41;8.00;;;5.47;;
29416;SDS011;28421;51.030;4.006;2023-04-03T04:48:07;6.68;;;5.47;;
29416;SDS011;28421;51.030;4.006;2023-04-03T04:50:33;5.60;;;5.05;;
29416;SDS011;28421;51.030;4.006;2023-04-03T04:52:58;8.73;;;6.55;;
29416;SDS011;28421;51.030;4.006;2023-04-03T04:55:24;9.50;;;6.72;;
29416;SDS011;28421;51.030;4.006;2023-04-03T04:57:49;10.48;;;5.70;;
29416;SDS011;28421;51.030;4.006;2023-04-03T05:00:15;8.50;;;6.25;;
29416;SDS011;28421;51.030;4.006;2023-04-03T05:02:41;7.28;;;6.05;;
29416;SDS011;28421;51.030;4.006;2023-04-03T05:05:07;9.90;;;6.88;;
29416;SDS011;28421;51.030;4.006;2023-04-03T05:07:33;8.02;;;5.72;;
29416;SDS011;28421;51.030;4.006;2023-04-03T05:10:01;10.68;;;7.75;;
29416;SDS011;28421;51.030;4.006;2023-04-03T05:12:28;15.75;;;7.05;;
29416;SDS011;28421;51.030;4.006;2023-04-03T05:14:58;8.30;;;6.50;;
29416;SDS011;28421;51.030;4.006;2023-04-03T05:17:25;11.35;;;7.00;;
29416;SDS011;28421;51.030;4.006;2023-04-03T05:19:54;7.18;;;5.50;;
29416;SDS011;28421;51.030;4.006;2023-04-03T05:22:21;6.50;;;5.82;;
29416;SDS011;28421;51.030;4.006;2023-04-03T05:24:47;9.50;;;6.72;;
29416;SDS011;28421;51.030;4.006;2023-04-03T05:27:13;9.52;;;6.93;;
29416;SDS011;28421;51.030;4.006;2023-04-03T05:29:43;7.53;;;6.30;;
29416;SDS011;28421;51.030;4.006;2023-04-03T05:32:10;9.55;;;8.05;;
29416;SDS011;28421;51.030;4.006;2023-04-03T05:34:37;11.07;;;5.57;;
29416;SDS011;28421;51.030;4.006;2023-04-03T05:37:03;5.82;;;5.22;;
29416;SDS011;28421;51.030;4.006;2023-04-03T05:39:30;7.78;;;6.82;;
29416;SDS011;28421;51.030;4.006;2023-04-03T05:41:57;11.93;;;7.32;;
29416;SDS011;28421;51.030;4.006;2023-04-03T05:44:22;8.82;;;6.28;;
29416;SDS011;28421;51.030;4.006;2023-04-03T05:46:49;11.07;;;6.88;;
29416;SDS011;28421;51.030;4.006;2023-04-03T05:49:15;11.10;;;7.35;;
29416;SDS011;28421;51.030;4.006;2023-04-03T05:51:40;9.82;;;7.25;;
29416;SDS011;28421;51.030;4.006;2023-04-03T05:54:25;15.95;;;7.22;;
29416;SDS011;28421;51.030;4.006;2023-04-03T05:56:55;10.20;;;7.05;;
29416;SDS011;28421;51.030;4.006;2023-04-03T05:59:21;9.00;;;6.78;;
29416;SDS011;28421;51.030;4.006;2023-04-03T06:01:49;9.63;;;8.18;;
29416;SDS011;28421;51.030;4.006;2023-04-03T06:04:15;8.52;;;6.53;;
29416;SDS011;28421;51.030;4.006;2023-04-03T06:06:51;10.98;;;7.72;;
29416;SDS011;28421;51.030;4.006;2023-04-03T06:09:19;18.02;;;7.95;;
29416;SDS011;28421;51.030;4.006;2023-04-03T06:11:46;13.18;;;8.18;;
29416;SDS011;28421;51.030;4.006;2023-04-03T06:14:11;13.98;;;9.50;;
29416;SDS011;28421;51.030;4.006;2023-04-03T06:16:38;11.85;;;8.57;;
29416;SDS011;28421;51.030;4.006;2023-04-03T06:19:09;15.73;;;9.70;;
29416;SDS011;28421;51.030;4.006;2023-04-03T06:21:38;11.88;;;8.45;;
29416;SDS011;28421;51.030;4.006;2023-04-03T06:24:04;18.52;;;9.93;;
29416;SDS011;28421;51.030;4.006;2023-04-03T06:26:31;13.90;;;7.35;;
29416;SDS011;28421;51.030;4.006;2023-04-03T06:28:58;12.85;;;8.50;;
29416;SDS011;28421;51.030;4.006;2023-04-03T06:31:23;19.35;;;9.25;;
29416;SDS011;28421;51.030;4.006;2023-04-03T06:33:49;16.45;;;9.90;;
29416;SDS011;28421;51.030;4.006;2023-04-03T06:36:15;11.38;;;7.95;;
29416;SDS011;28421;51.030;4.006;2023-04-03T06:38:45;10.23;;;8.80;;
29416;SDS011;28421;51.030;4.006;2023-04-03T06:41:10;10.45;;;8.52;;
29416;SDS011;28421;51.030;4.006;2023-04-03T06:43:36;17.85;;;10.10;;
29416;SDS011;28421;51.030;4.006;2023-04-03T06:46:01;14.70;;;8.85;;
29416;SDS011;28421;51.030;4.006;2023-04-03T06:48:27;12.68;;;8.75;;
29416;SDS011;28421;51.030;4.006;2023-04-03T06:50:53;11.52;;;7.90;;
29416;SDS011;28421;51.030;4.006;2023-04-03T06:53:18;11.57;;;8.50;;
29416;SDS011;28421;51.030;4.006;2023-04-03T06:55:44;16.15;;;10.35;;
29416;SDS011;28421;51.030;4.006;2023-04-03T06:58:10;13.52;;;9.45;;
29416;SDS011;28421;51.030;4.006;2023-04-03T07:00:35;16.75;;;10.27;;
29416;SDS011;28421;51.030;4.006;2023-04-03T07:03:01;27.33;;;9.98;;
29416;SDS011;28421;51.030;4.006;2023-04-03T07:05:26;16.02;;;10.95;;
29416;SDS011;28421;51.030;4.006;2023-04-03T07:07:52;18.20;;;9.60;;
29416;SDS011;28421;51.030;4.006;2023-04-03T07:10:18;15.95;;;10.18;;
29416;SDS011;28421;51.030;4.006;2023-04-03T07:12:43;15.65;;;10.45;;
29416;SDS011;28421;51.030;4.006;2023-04-03T07:15:10;19.30;;;10.95;;
29416;SDS011;28421;51.030;4.006;2023-04-03T07:17:37;21.20;;;10.85;;
29416;SDS011;28421;51.030;4.006;2023-04-03T07:20:02;14.02;;;9.93;;
29416;SDS011;28421;51.030;4.006;2023-04-03T07:22:30;17.20;;;10.75;;
29416;SDS011;28421;51.030;4.006;2023-04-03T07:24:55;15.10;;;9.82;;
29416;SDS011;28421;51.030;4.006;2023-04-03T07:27:21;16.60;;;9.90;;
29416;SDS011;28421;51.030;4.006;2023-04-03T07:29:47;12.65;;;9.88;;
29416;SDS011;28421;51.030;4.006;2023-04-03T07:32:13;21.65;;;9.48;;
29416;SDS011;28421;51.030;4.006;2023-04-03T07:34:39;15.70;;;10.48;;
29416;SDS011;28421;51.030;4.006;2023-04-03T07:37:05;15.80;;;9.38;;
29416;SDS011;28421;51.030;4.006;2023-04-03T07:39:31;14.45;;;10.20;;
29416;SDS011;28421;51.030;4.006;2023-04-03T07:41:57;11.68;;;10.38;;
29416;SDS011;28421;51.030;4.006;2023-04-03T07:44:22;14.85;;;9.63;;
29416;SDS011;28421;51.030;4.006;2023-04-03T07:46:48;16.58;;;10.60;;
29416;SDS011;28421;51.030;4.006;2023-04-03T07:49:14;14.60;;;10.05;;
29416;SDS011;28421;51.030;4.006;2023-04-03T07:51:39;13.93;;;10.32;;
29416;SDS011;28421;51.030;4.006;2023-04-03T07:54:05;13.23;;;9.85;;
29416;SDS011;28421;51.030;4.006;2023-04-03T07:56:31;12.02;;;9.00;;
29416;SDS011;28421;51.030;4.006;2023-04-03T07:58:57;13.18;;;9.45;;
29416;SDS011;28421;51.030;4.006;2023-04-03T08:01:22;15.20;;;9.27;;
29416;SDS011;28421;51.030;4.006;2023-04-03T08:03:48;14.27;;;8.98;;
29416;SDS011;28421;51.030;4.006;2023-04-03T08:06:13;14.93;;;8.65;;
29416;SDS011;28421;51.030;4.006;2023-04-03T08:08:40;13.23;;;8.77;;
29416;SDS011;28421;51.030;4.006;2023-04-03T08:11:06;17.65;;;10.13;;
29416;SDS011;28421;51.030;4.006;2023-04-03T08:13:33;16.15;;;9.13;;
29416;SDS011;28421;51.030;4.006;2023-04-03T08:16:10;16.52;;;8.38;;
29416;SDS011;28421;51.030;4.006;2023-04-03T08:18:42;16.88;;;8.35;;
29416;SDS011;28421;51.030;4.006;2023-04-03T08:21:08;18.02;;;9.60;;
29416;SDS011;28421;51.030;4.006;2023-04-03T08:23:35;12.85;;;8.10;;
29416;SDS011;28421;51.030;4.006;2023-04-03T08:26:05;12.57;;;8.88;;
29416;SDS011;28421;51.030;4.006;2023-04-03T08:28:32;9.65;;;7.93;;
29416;SDS011;28421;51.030;4.006;2023-04-03T08:31:01;22.17;;;8.90;;
29416;SDS011;28421;51.030;4.006;2023-04-03T08:33:27;14.55;;;8.07;;
29416;SDS011;28421;51.030;4.006;2023-04-03T08:35:53;13.88;;;7.65;;
29416;SDS011;28421;51.030;4.006;2023-04-03T08:38:18;15.60;;;7.65;;
29416;SDS011;28421;51.030;4.006;2023-04-03T08:40:44;11.43;;;7.25;;
29416;SDS011;28421;51.030;4.006;2023-04-03T08:43:27;14.40;;;6.95;;
29416;SDS011;28421;51.030;4.006;2023-04-03T08:46:03;9.32;;;6.80;;
29416;SDS011;28421;51.030;4.006;2023-04-03T08:48:32;15.60;;;7.25;;
29416;SDS011;28421;51.030;4.006;2023-04-03T08:51:01;8.10;;;6.55;;
29416;SDS011;28421;51.030;4.006;2023-04-03T08:53:32;9.15;;;6.18;;
29416;SDS011;28421;51.030;4.006;2023-04-03T08:56:05;8.15;;;5.55;;
29416;SDS011;28421;51.030;4.006;2023-04-03T08:58:39;9.27;;;5.55;;
29416;SDS011;28421;51.030;4.006;2023-04-03T09:01:17;8.35;;;4.88;;
29416;SDS011;28421;51.030;4.006;2023-04-03T09:03:45;7.45;;;4.38;;
29416;SDS011;28421;51.030;4.006;2023-04-03T09:06:19;10.10;;;5.30;;
29416;SDS011;28421;51.030;4.006;2023-04-03T09:08:49;9.60;;;4.65;;
29416;SDS011;28421;51.030;4.006;2023-04-03T09:11:30;4.32;;;3.50;;
29416;SDS011;28421;51.030;4.006;2023-04-03T09:14:12;5.05;;;3.58;;
29416;SDS011;28421;51.030;4.006;2023-04-03T09:19:31;3.85;;;3.53;;
29416;SDS011;28421;51.030;4.006;2023-04-03T09:27:28;4.32;;;3.15;;
29416;SDS011;28421;51.030;4.006;2023-04-03T09:29:55;7.50;;;2.95;;
29416;SDS011;28421;51.030;4.006;2023-04-03T09:34:50;6.10;;;2.95;;
29416;SDS011;28421;51.030;4.006;2023-04-03T09:40:04;5.95;;;3.30;;
29416;SDS011;28421;51.030;4.006;2023-04-03T09:42:31;6.63;;;3.55;;
29416;SDS011;28421;51.030;4.006;2023-04-03T09:45:01;5.18;;;3.25;;
29416;SDS011;28421;51.030;4.006;2023-04-03T09:47:30;5.68;;;2.90;;
29416;SDS011;28421;51.030;4.006;2023-04-03T09:52:43;8.82;;;2.45;;
29416;SDS011;28421;51.030;4.006;2023-04-03T09:57:40;4.63;;;2.67;;
29416;SDS011;28421;51.030;4.006;2023-04-03T10:00:06;4.88;;;2.25;;
29416;SDS011;28421;51.030;4.006;2023-04-03T10:02:51;4.72;;;2.67;;
29416;SDS011;28421;51.030;4.006;2023-04-03T10:05:27;7.25;;;2.53;;
29416;SDS011;28421;51.030;4.006;2023-04-03T10:08:10;5.70;;;3.03;;
29416;SDS011;28421;51.030;4.006;2023-04-03T10:10:39;10.55;;;2.55;;
29416;SDS011;28421;51.030;4.006;2023-04-03T10:13:16;10.73;;;2.20;;
29416;SDS011;28421;51.030;4.006;2023-04-03T10:15:47;5.63;;;2.08;;
29416;SDS011;28421;51.030;4.006;2023-04-03T10:21:13;6.95;;;2.38;;
29416;SDS011;28421;51.030;4.006;2023-04-03T10:23:55;2.63;;;2.00;;
29416;SDS011;28421;51.030;4.006;2023-04-03T10:29:28;10.57;;;1.70;;
29416;SDS011;28421;51.030;4.006;2023-04-03T10:34:43;5.15;;;2.30;;
29416;SDS011;28421;51.030;4.006;2023-04-03T10:37:15;4.43;;;2.00;;
29416;SDS011;28421;51.030;4.006;2023-04-03T10:42:18;2.63;;;1.95;;
29416;SDS011;28421;51.030;4.006;2023-04-03T10:47:40;1.70;;;1.60;;
29416;SDS011;28421;51.030;4.006;2023-04-03T10:50:38;4.22;;;1.95;;
29416;SDS011;28421;51.030;4.006;2023-04-03T10:55:51;7.30;;;1.67;;
29416;SDS011;28421;51.030;4.006;2023-04-03T10:58:24;8.80;;;1.92;;
29416;SDS011;28421;51.030;4.006;2023-04-03T11:00:57;1.60;;;1.50;;
29416;SDS011;28421;51.030;4.006;2023-04-03T11:03:32;1.23;;;1.13;;
29416;SDS011;28421;51.030;4.006;2023-04-03T11:06:07;5.00;;;1.65;;
29416;SDS011;28421;51.030;4.006;2023-04-03T11:11:22;2.42;;;1.60;;
29416;SDS011;28421;51.030;4.006;2023-04-03T11:13:55;2.67;;;1.30;;
29416;SDS011;28421;51.030;4.006;2023-04-03T11:16:29;3.03;;;1.33;;
29416;SDS011;28421;51.030;4.006;2023-04-03T11:19:11;5.97;;;1.30;;
29416;SDS011;28421;51.030;4.006;2023-04-03T11:24:38;2.83;;;1.58;;
29416;SDS011;28421;51.030;4.006;2023-04-03T11:27:17;1.83;;;1.08;;
29416;SDS011;28421;51.030;4.006;2023-04-03T11:30:11;1.02;;;1.00;;
29416;SDS011;28421;51.030;4.006;2023-04-03T11:35:47;1.65;;;1.13;;
29416;SDS011;28421;51.030;4.006;2023-04-03T11:39:30;2.83;;;1.60;;
29416;SDS011;28421;51.030;4.006;2023-04-03T11:45:09;5.80;;;1.92;;
29416;SDS011;28421;51.030;4.006;2023-04-03T11:51:43;2.67;;;1.90;;
29416;SDS011;28421;51.030;4.006;2023-04-03T11:53:53;2.90;;;1.67;;
29416;SDS011;28421;51.030;4.006;2023-04-03T12:04:16;2.35;;;1.50;;
29416;SDS011;28421;51.030;4.006;2023-04-03T12:12:57;5.38;;;1.92;;
29416;SDS011;28421;51.030;4.006;2023-04-03T12:18:30;6.43;;;2.05;;
29416;SDS011;28421;51.030;4.006;2023-04-03T12:21:05;4.63;;;1.73;;
29416;SDS011;28421;51.030;4.006;2023-04-03T12:23:34;5.32;;;1.80;;
29416;SDS011;28421;51.030;4.006;2023-04-03T12:26:20;4.38;;;1.80;;
29416;SDS011;28421;51.030;4.006;2023-04-03T12:28:48;3.10;;;1.50;;
29416;SDS011;28421;51.030;4.006;2023-04-03T12:31:15;4.18;;;2.15;;
29416;SDS011;28421;51.030;4.006;2023-04-03T12:36:47;2.88;;;1.00;;
29416;SDS011;28421;51.030;4.006;2023-04-03T12:45:13;2.47;;;1.40;;
29416;SDS011;28421;51.030;4.006;2023-04-03T12:47:45;3.65;;;1.20;;
29416;SDS011;28421;51.030;4.006;2023-04-03T12:50:17;2.38;;;1.45;;
29416;SDS011;28421;51.030;4.006;2023-04-03T12:55:44;3.67;;;1.17;;
29416;SDS011;28421;51.030;4.006;2023-04-03T12:58:13;4.63;;;1.48;;
29416;SDS011;28421;51.030;4.006;2023-04-03T13:00:41;3.60;;;1.10;;
29416;SDS011;28421;51.030;4.006;2023-04-03T13:03:20;4.50;;;1.35;;
29416;SDS011;28421;51.030;4.006;2023-04-03T13:05:49;2.00;;;1.08;;
29416;SDS011;28421;51.030;4.006;2023-04-03T13:08:15;2.28;;;0.95;;
29416;SDS011;28421;51.030;4.006;2023-04-03T13:13:31;0.85;;;0.82;;
29416;SDS011;28421;51.030;4.006;2023-04-03T13:15:57;2.15;;;1.20;;
29416;SDS011;28421;51.030;4.006;2023-04-03T13:18:26;3.92;;;0.95;;
29416;SDS011;28421;51.030;4.006;2023-04-03T13:21:19;3.75;;;1.08;;
29416;SDS011;28421;51.030;4.006;2023-04-03T13:23:46;1.80;;;0.88;;
29416;SDS011;28421;51.030;4.006;2023-04-03T13:26:18;2.92;;;1.27;;
29416;SDS011;28421;51.030;4.006;2023-04-03T13:28:46;1.55;;;1.10;;
29416;SDS011;28421;51.030;4.006;2023-04-03T13:33:53;1.38;;;1.27;;
29416;SDS011;28421;51.030;4.006;2023-04-03T13:36:37;4.40;;;1.17;;
29416;SDS011;28421;51.030;4.006;2023-04-03T13:41:37;1.00;;;1.00;;
29416;SDS011;28421;51.030;4.006;2023-04-03T13:44:17;1.25;;;1.15;;
29416;SDS011;28421;51.030;4.006;2023-04-03T13:46:52;4.60;;;0.90;;
29416;SDS011;28421;51.030;4.006;2023-04-03T13:49:43;1.40;;;1.30;;
29416;SDS011;28421;51.030;4.006;2023-04-03T13:52:21;4.60;;;1.05;;
29416;SDS011;28421;51.030;4.006;2023-04-03T13:54:58;1.15;;;1.05;;
29416;SDS011;28421;51.030;4.006;2023-04-03T13:57:26;5.60;;;1.00;;
29416;SDS011;28421;51.030;4.006;2023-04-03T13:59:52;2.08;;;0.95;;
29416;SDS011;28421;51.030;4.006;2023-04-03T14:02:33;2.58;;;1.40;;
29416;SDS011;28421;51.030;4.006;2023-04-03T14:04:59;2.10;;;1.38;;
29416;SDS011;28421;51.030;4.006;2023-04-03T14:07:29;1.63;;;1.27;;
29416;SDS011;28421;51.030;4.006;2023-04-03T14:09:56;1.30;;;1.08;;
29416;SDS011;28421;51.030;4.006;2023-04-03T14:12:25;4.65;;;1.60;;
29416;SDS011;28421;51.030;4.006;2023-04-03T14:14:54;2.00;;;1.17;;
29416;SDS011;28421;51.030;4.006;2023-04-03T14:17:22;3.97;;;1.10;;
29416;SDS011;28421;51.030;4.006;2023-04-03T14:19:50;2.67;;;1.58;;
29416;SDS011;28421;51.030;4.006;2023-04-03T14:22:18;1.85;;;1.10;;
29416;SDS011;28421;51.030;4.006;2023-04-03T14:24:47;1.42;;;1.30;;
29416;SDS011;28421;51.030;4.006;2023-04-03T14:27:15;1.65;;;1.05;;
29416;SDS011;28421;51.030;4.006;2023-04-03T14:29:43;2.42;;;1.15;;
29416;SDS011;28421;51.030;4.006;2023-04-03T14:32:10;1.50;;;1.05;;
29416;SDS011;28421;51.030;4.006;2023-04-03T14:34:38;1.45;;;1.33;;
29416;SDS011;28421;51.030;4.006;2023-04-03T14:37:04;3.53;;;1.27;;
29416;SDS011;28421;51.030;4.006;2023-04-03T14:39:34;3.08;;;1.02;;
29416;SDS011;28421;51.030;4.006;2023-04-03T14:41:59;3.67;;;1.20;;
29416;SDS011;28421;51.030;4.006;2023-04-03T14:44:25;5.07;;;1.13;;
29416;SDS011;28421;51.030;4.006;2023-04-03T14:46:51;1.60;;;1.50;;
29416;SDS011;28421;51.030;4.006;2023-04-03T14:49:21;4.18;;;1.40;;
29416;SDS011;28421;51.030;4.006;2023-04-03T14:51:48;1.45;;;1.08;;
29416;SDS011;28421;51.030;4.006;2023-04-03T14:54:16;1.55;;;0.80;;
29416;SDS011;28421;51.030;4.006;2023-04-03T14:56:44;2.55;;;1.10;;
29416;SDS011;28421;51.030;4.006;2023-04-03T14:59:10;2.17;;;1.00;;
29416;SDS011;28421;51.030;4.006;2023-04-03T15:01:38;1.73;;;1.23;;
29416;SDS011;28421;51.030;4.006;2023-04-03T15:04:13;3.53;;;1.40;;
29416;SDS011;28421;51.030;4.006;2023-04-03T15:06:40;2.67;;;1.10;;
29416;SDS011;28421;51.030;4.006;2023-04-03T15:09:11;5.70;;;1.17;;
29416;SDS011;28421;51.030;4.006;2023-04-03T15:11:45;2.20;;;1.25;;
29416;SDS011;28421;51.030;4.006;2023-04-03T15:14:11;3.33;;;1.15;;
29416;SDS011;28421;51.030;4.006;2023-04-03T15:16:36;1.23;;;1.10;;
29416;SDS011;28421;51.030;4.006;2023-04-03T15:19:02;1.77;;;1.20;;
29416;SDS011;28421;51.030;4.006;2023-04-03T15:21:28;2.35;;;1.10;;
29416;SDS011;28421;51.030;4.006;2023-04-03T15:23:53;1.85;;;1.33;;
29416;SDS011;28421;51.030;4.006;2023-04-03T15:26:18;2.35;;;1.20;;
29416;SDS011;28421;51.030;4.006;2023-04-03T15:28:45;1.83;;;1.33;;
29416;SDS011;28421;51.030;4.006;2023-04-03T15:31:11;1.10;;;0.98;;
29416;SDS011;28421;51.030;4.006;2023-04-03T15:33:37;3.83;;;1.02;;
29416;SDS011;28421;51.030;4.006;2023-04-03T15:36:03;4.43;;;1.15;;
29416;SDS011;28421;51.030;4.006;2023-04-03T15:38:29;1.15;;;1.05;;
29416;SDS011;28421;51.030;4.006;2023-04-03T15:40:55;6.72;;;1.35;;
29416;SDS011;28421;51.030;4.006;2023-04-03T15:43:21;2.17;;;1.10;;
29416;SDS011;28421;51.030;4.006;2023-04-03T15:45:48;2.35;;;1.20;;
29416;SDS011;28421;51.030;4.006;2023-04-03T15:48:14;4.22;;;1.45;;
29416;SDS011;28421;51.030;4.006;2023-04-03T15:50:40;2.42;;;1.23;;
29416;SDS011;28421;51.030;4.006;2023-04-03T15:53:06;2.20;;;1.05;;
29416;SDS011;28421;51.030;4.006;2023-04-03T15:55:32;1.15;;;0.90;;
29416;SDS011;28421;51.030;4.006;2023-04-03T15:58:00;1.90;;;1.10;;
29416;SDS011;28421;51.030;4.006;2023-04-03T16:00:26;6.50;;;1.10;;
29416;SDS011;28421;51.030;4.006;2023-04-03T16:02:56;11.75;;;1.45;;
29416;SDS011;28421;51.030;4.006;2023-04-03T16:05:27;0.90;;;0.90;;
29416;SDS011;28421;51.030;4.006;2023-04-03T16:07:52;5.47;;;0.95;;
29416;SDS011;28421;51.030;4.006;2023-04-03T16:10:21;2.70;;;1.50;;
29416;SDS011;28421;51.030;4.006;2023-04-03T16:12:46;2.08;;;1.50;;
29416;SDS011;28421;51.030;4.006;2023-04-03T16:15:12;1.00;;;1.00;;
29416;SDS011;28421;51.030;4.006;2023-04-03T16:17:38;1.63;;;1.23;;
29416;SDS011;28421;51.030;4.006;2023-04-03T16:20:06;1.30;;;1.23;;
29416;SDS011;28421;51.030;4.006;2023-04-03T16:22:33;2.08;;;1.20;;
29416;SDS011;28421;51.030;4.006;2023-04-03T16:24:59;5.28;;;1.73;;
29416;SDS011;28421;51.030;4.006;2023-04-03T16:27:25;7.95;;;1.58;;
29416;SDS011;28421;51.030;4.006;2023-04-03T16:29:55;3.40;;;1.13;;
29416;SDS011;28421;51.030;4.006;2023-04-03T16:32:21;2.42;;;1.40;;
29416;SDS011;28421;51.030;4.006;2023-04-03T16:34:48;2.58;;;1.45;;
29416;SDS011;28421;51.030;4.006;2023-04-03T16:37:13;2.75;;;1.33;;
29416;SDS011;28421;51.030;4.006;2023-04-03T16:39:40;3.65;;;1.30;;
29416;SDS011;28421;51.030;4.006;2023-04-03T16:42:05;0.90;;;0.90;;
29416;SDS011;28421;51.030;4.006;2023-04-03T16:44:31;1.95;;;1.15;;
29416;SDS011;28421;51.030;4.006;2023-04-03T16:46:56;3.20;;;1.30;;
29416;SDS011;28421;51.030;4.006;2023-04-03T16:49:22;0.88;;;0.88;;
29416;SDS011;28421;51.030;4.006;2023-04-03T16:51:48;2.38;;;1.45;;
29416;SDS011;28421;51.030;4.006;2023-04-03T16:54:13;1.52;;;1.42;;
29416;SDS011;28421;51.030;4.006;2023-04-03T16:56:39;2.75;;;1.52;;
29416;SDS011;28421;51.030;4.006;2023-04-03T16:59:09;2.15;;;1.48;;
29416;SDS011;28421;51.030;4.006;2023-04-03T17:01:35;2.67;;;1.40;;
29416;SDS011;28421;51.030;4.006;2023-04-03T17:04:00;5.30;;;1.65;;
29416;SDS011;28421;51.030;4.006;2023-04-03T17:06:26;1.88;;;1.25;;
29416;SDS011;28421;51.030;4.006;2023-04-03T17:08:51;2.78;;;1.85;;
29416;SDS011;28421;51.030;4.006;2023-04-03T17:11:26;7.80;;;1.63;;
29416;SDS011;28421;51.030;4.006;2023-04-03T17:13:53;2.80;;;1.15;;
29416;SDS011;28421;51.030;4.006;2023-04-03T17:16:18;3.63;;;1.65;;
29416;SDS011;28421;51.030;4.006;2023-04-03T17:18:46;2.92;;;1.67;;
29416;SDS011;28421;51.030;4.006;2023-04-03T17:21:12;1.38;;;1.20;;
29416;SDS011;28421;51.030;4.006;2023-04-03T17:23:39;1.70;;;1.60;;
29416;SDS011;28421;51.030;4.006;2023-04-03T17:26:07;6.10;;;1.40;;
29416;SDS011;28421;51.030;4.006;2023-04-03T17:28:38;1.83;;;1.30;;
29416;SDS011;28421;51.030;4.006;2023-04-03T17:31:06;3.15;;;1.65;;
29416;SDS011;28421;51.030;4.006;2023-04-03T17:33:31;1.55;;;1.30;;
29416;SDS011;28421;51.030;4.006;2023-04-03T17:36:00;4.78;;;1.65;;
29416;SDS011;28421;51.030;4.006;2023-04-03T17:38:29;1.92;;;1.58;;
29416;SDS011;28421;51.030;4.006;2023-04-03T17:40:59;2.30;;;1.67;;
29416;SDS011;28421;51.030;4.006;2023-04-03T17:43:27;3.08;;;1.42;;
29416;SDS011;28421;51.030;4.006;2023-04-03T17:45:52;1.88;;;1.70;;
29416;SDS011;28421;51.030;4.006;2023-04-03T17:48:18;6.47;;;1.98;;
29416;SDS011;28421;51.030;4.006;2023-04-03T17:50:44;3.30;;;1.20;;
29416;SDS011;28421;51.030;4.006;2023-04-03T17:53:10;4.50;;;2.17;;
29416;SDS011;28421;51.030;4.006;2023-04-03T17:55:39;4.93;;;1.27;;
29416;SDS011;28421;51.030;4.006;2023-04-03T17:58:05;3.13;;;1.85;;
29416;SDS011;28421;51.030;4.006;2023-04-03T18:00:32;6.00;;;2.40;;
29416;SDS011;28421;51.030;4.006;2023-04-03T18:02:58;2.00;;;1.80;;
29416;SDS011;28421;51.030;4.006;2023-04-03T18:05:29;3.65;;;1.75;;
29416;SDS011;28421;51.030;4.006;2023-04-03T18:07:55;3.85;;;2.00;;
29416;SDS011;28421;51.030;4.006;2023-04-03T18:10:23;5.28;;;2.20;;
29416;SDS011;28421;51.030;4.006;2023-04-03T18:12:49;5.22;;;1.45;;
29416;SDS011;28421;51.030;4.006;2023-04-03T18:15:16;2.17;;;1.90;;
29416;SDS011;28421;51.030;4.006;2023-04-03T18:17:41;74.32;;;33.05;;
29416;SDS011;28421;51.030;4.006;2023-04-03T18:20:07;23.05;;;10.90;;
29416;SDS011;28421;51.030;4.006;2023-04-03T18:22:34;7.65;;;5.28;;
29416;SDS011;28421;51.030;4.006;2023-04-03T18:25:00;35.88;;;15.65;;
29416;SDS011;28421;51.030;4.006;2023-04-03T18:27:25;16.52;;;9.32;;
29416;SDS011;28421;51.030;4.006;2023-04-03T18:29:52;11.48;;;4.32;;
29416;SDS011;28421;51.030;4.006;2023-04-03T18:32:20;13.38;;;6.43;;
29416;SDS011;28421;51.030;4.006;2023-04-03T18:34:46;35.70;;;14.00;;
29416;SDS011;28421;51.030;4.006;2023-04-03T18:37:14;62.63;;;22.95;;
29416;SDS011;28421;51.030;4.006;2023-04-03T18:39:53;16.73;;;6.95;;
29416;SDS011;28421;51.030;4.006;2023-04-03T18:42:19;2.45;;;2.20;;
29416;SDS011;28421;51.030;4.006;2023-04-03T18:44:51;3.78;;;2.30;;
29416;SDS011;28421;51.030;4.006;2023-04-03T18:47:23;3.22;;;2.75;;
29416;SDS011;28421;51.030;4.006;2023-04-03T18:49:48;3.08;;;2.30;;
29416;SDS011;28421;51.030;4.006;2023-04-03T18:52:14;5.95;;;2.15;;
29416;SDS011;28421;51.030;4.006;2023-04-03T18:54:40;4.40;;;2.50;;
29416;SDS011;28421;51.030;4.006;2023-04-03T18:57:06;4.35;;;2.47;;
29416;SDS011;28421;51.030;4.006;2023-04-03T18:59:32;3.60;;;3.28;;
29416;SDS011;28421;51.030;4.006;2023-04-03T19:01:57;4.22;;;3.38;;
29416;SDS011;28421;51.030;4.006;2023-04-03T19:04:24;2.08;;;1.70;;
29416;SDS011;28421;51.030;4.006;2023-04-03T19:06:51;5.13;;;2.47;;
29416;SDS011;28421;51.030;4.006;2023-04-03T19:09:17;3.80;;;2.15;;
29416;SDS011;28421;51.030;4.006;2023-04-03T19:11:45;3.60;;;2.42;;
29416;SDS011;28421;51.030;4.006;2023-04-03T19:14:34;3.33;;;2.30;;
29416;SDS011;28421;51.030;4.006;2023-04-03T19:17:09;5.85;;;2.28;;
29416;SDS011;28421;51.030;4.006;2023-04-03T19:19:37;2.53;;;2.20;;
29416;SDS011;28421;51.030;4.006;2023-04-03T19:22:03;7.60;;;2.97;;
29416;SDS011;28421;51.030;4.006;2023-04-03T19:24:59;3.63;;;2.50;;
29416;SDS011;28421;51.030;4.006;2023-04-03T19:27:37;5.18;;;3.33;;
29416;SDS011;28421;51.030;4.006;2023-04-03T19:30:52;5.95;;;3.08;;
29416;SDS011;28421;51.030;4.006;2023-04-03T19:33:18;7.95;;;2.95;;
29416;SDS011;28421;51.030;4.006;2023-04-03T19:35:45;2.95;;;2.60;;
29416;SDS011;28421;51.030;4.006;2023-04-03T19:38:10;3.13;;;2.38;;
29416;SDS011;28421;51.030;4.006;2023-04-03T19:40:38;7.05;;;2.25;;